Time;durP1;ratioP1;P1;durP2;ratioP2;P2;SDS_P1;SDS_P2;PMS_P1;PMS_P2;Temp;Humidity;BMP_temperature;BMP_pressure;BME280_temperature;BME280_humidity;BME280_pressure;Samples;Min_cycle;Max_cycle;Signal;HPM_P1;HPM_P2
2022/07/28 00:01:10;;;;;;;3.83;1.40;;;;;;;13.54;69.20;102138.09;4786193;29;20051;-78
2022/07/28 00:03:36;;;;;;;2.58;1.45;;;;;;;13.52;69.09;102134.34;4785782;29;20697;-78
2022/07/28 00:06:03;;;;;;;4.15;1.60;;;;;;;13.51;69.08;102130.16;4784378;29;20133;-77
2022/07/28 00:08:29;;;;;;;5.85;1.83;;;;;;;13.48;69.21;102123.00;4785332;29;20501;-77
2022/07/28 00:10:56;;;;;;;1.73;1.42;;;;;;;13.46;69.60;102125.34;4786057;29;20055;-77
2022/07/28 00:13:22;;;;;;;3.53;1.50;;;;;;;13.44;69.78;102123.09;4785885;29;20638;-78
2022/07/28 00:15:48;;;;;;;1.70;1.60;;;;;;;13.40;70.16;102122.44;4786081;29;20043;-77
2022/07/28 00:18:15;;;;;;;2.75;1.40;;;;;;;13.37;69.87;102117.19;4785785;29;20056;-77
2022/07/28 00:20:42;;;;;;;6.00;1.52;;;;;;;13.34;70.06;102122.22;4785883;29;20052;-77
2022/07/28 00:23:08;;;;;;;3.13;1.60;;;;;;;13.33;69.97;102114.59;4785954;29;20052;-78
2022/07/28 00:25:35;;;;;;;4.72;1.65;;;;;;;13.34;70.07;102121.47;4785866;29;20052;-78
2022/07/28 00:28:01;;;;;;;3.55;1.80;;;;;;;13.32;70.46;102119.22;4785764;29;20116;-77
2022/07/28 00:30:27;;;;;;;5.03;1.70;;;;;;;13.34;70.43;102129.47;4784556;29;20109;-77
2022/07/28 00:32:54;;;;;;;5.60;1.48;;;;;;;13.30;70.40;102126.16;4785264;29;20134;-77
2022/07/28 00:35:21;;;;;;;2.50;1.60;;;;;;;13.29;70.40;102125.41;4785828;29;20051;-77
2022/07/28 00:37:56;;;;;;;4.85;1.45;;;;;;;13.23;70.73;102124.41;4784687;29;20158;-77
2022/07/28 00:41:09;;;;;;;1.58;1.45;;;;;;;13.20;70.67;102116.50;4785523;29;20056;-78
2022/07/28 00:43:09;;;;;;;3.05;1.95;;;;;;;13.17;71.80;102125.38;4785566;29;20056;-78
2022/07/28 00:45:36;;;;;;;2.70;1.42;;;;;;;13.13;71.68;102124.69;4785664;29;20537;-78
2022/07/28 00:48:02;;;;;;;2.63;1.50;;;;;;;13.11;71.55;102121.69;4785116;29;20064;-78
2022/07/28 00:50:29;;;;;;;3.25;1.45;;;;;;;13.08;71.58;102120.63;4769193;29;20055;-78
2022/07/28 00:52:57;;;;;;;2.55;1.70;;;;;;;13.06;71.72;102109.59;4785579;29;20059;-77
2022/07/28 00:55:23;;;;;;;1.60;1.42;;;;;;;13.00;72.37;102113.97;4784208;29;20048;-78
2022/07/28 00:57:50;;;;;;;1.92;1.60;;;;;;;12.98;71.98;102106.38;4785840;29;20496;-78
2022/07/28 01:00:17;;;;;;;4.53;1.52;;;;;;;12.96;72.31;102114.06;4785726;29;20048;-77
2022/07/28 01:02:45;;;;;;;3.05;1.70;;;;;;;12.94;72.70;102099.59;4784911;29;20094;-78
2022/07/28 01:05:13;;;;;;;2.97;1.52;;;;;;;12.90;72.40;102098.94;4785366;29;20067;-78
2022/07/28 01:08:09;;;;;;;3.28;1.60;;;;;;;12.88;72.06;102102.03;4784098;29;20060;-77
2022/07/28 01:11:22;;;;;;;4.63;1.70;;;;;;;12.82;72.10;102102.97;4784333;29;20052;-77
2022/07/28 01:14:06;;;;;;;3.95;1.80;;;;;;;12.80;72.77;102100.72;4765603;29;20060;-77
2022/07/28 01:16:35;;;;;;;3.45;1.85;;;;;;;12.76;73.02;102100.09;4782631;29;20056;-77
2022/07/28 01:19:31;;;;;;;2.30;1.60;;;;;;;12.75;72.34;102105.84;4782558;29;20068;-77
2022/07/28 01:22:00;;;;;;;2.28;1.60;;;;;;;12.71;72.79;102108.63;4784665;29;20068;-77
2022/07/28 01:24:36;;;;;;;3.83;1.48;;;;;;;12.67;73.47;102103.34;4785860;29;20060;-78
2022/07/28 01:27:06;;;;;;;2.67;1.88;;;;;;;12.64;73.67;102106.88;4783071;29;20055;-78
2022/07/28 01:29:33;;;;;;;6.45;1.50;;;;;;;12.60;73.59;102094.78;4766059;30;20056;-78
2022/07/28 01:32:03;;;;;;;2.38;1.42;;;;;;;12.60;74.27;102092.09;4751433;30;20060;-78
2022/07/28 01:34:35;;;;;;;3.53;1.50;;;;;;;12.58;73.83;102086.44;4766314;30;20143;-78
2022/07/28 01:37:18;;;;;;;1.75;1.48;;;;;;;12.52;73.98;102085.44;4767151;30;20075;-78
2022/07/28 01:39:50;;;;;;;7.65;2.22;;;;;;;12.50;73.67;102082.44;4767855;29;20671;-78
2022/07/28 01:42:20;;;;;;;1.70;1.60;;;;;;;12.46;74.43;102082.50;4768549;30;20063;-78
2022/07/28 01:44:49;;;;;;;7.13;1.67;;;;;;;12.45;74.65;102080.25;4768063;30;20514;-78
2022/07/28 01:47:18;;;;;;;4.07;2.00;;;;;;;12.41;74.38;102077.69;4767156;30;20063;-78
2022/07/28 01:49:49;;;;;;;2.03;1.63;;;;;;;12.39;74.87;102073.94;4768231;30;20144;-78
2022/07/28 01:52:19;;;;;;;2.88;1.60;;;;;;;12.34;75.34;102067.94;4769099;30;20139;-79
2022/07/28 01:54:46;;;;;;;6.13;1.88;;;;;;;12.30;75.64;102064.59;4768987;30;20484;-78
2022/07/28 01:57:16;;;;;;;3.97;1.77;;;;;;;12.27;75.93;102068.13;4770186;30;20052;-77
2022/07/28 01:59:44;;;;;;;3.35;2.03;;;;;;;12.23;75.84;102064.78;4769256;30;20117;-77
2022/07/28 02:02:13;;;;;;;2.55;1.90;;;;;;;12.20;75.87;102067.53;4769993;30;20166;-77
2022/07/28 02:04:41;;;;;;;2.38;1.65;;;;;;;12.16;76.07;102061.53;4769659;30;20450;-77
2022/07/28 02:07:10;;;;;;;4.22;1.65;;;;;;;12.14;76.23;102061.19;4769463;30;20131;-77
2022/07/28 02:09:38;;;;;;;6.30;1.95;;;;;;;12.08;76.82;102060.94;4769699;30;20551;-77
2022/07/28 02:12:06;;;;;;;1.45;1.35;;;;;;;12.06;76.25;102059.84;4752983;30;20110;-78
2022/07/28 02:14:35;;;;;;;2.55;1.65;;;;;;;12.05;76.69;102066.34;4769165;30;20052;-77
2022/07/28 02:17:09;;;;;;;2.78;1.92;;;;;;;12.02;76.76;102065.25;4769465;30;20164;-77
2022/07/28 02:19:37;;;;;;;5.55;1.75;;;;;;;12.00;76.75;102064.94;4769675;30;20506;-77
2022/07/28 02:22:05;;;;;;;7.28;2.00;;;;;;;11.98;77.26;102059.28;4769436;30;20052;-79
2022/07/28 02:24:32;;;;;;;3.33;1.85;;;;;;;11.95;77.55;102062.78;4753426;30;20113;-80
2022/07/28 02:27:14;;;;;;;2.47;2.28;;;;;;;11.95;77.18;102058.19;4768085;30;20473;-79
2022/07/28 02:29:48;;;;;;;3.30;1.75;;;;;;;11.95;77.71;102052.88;4769151;30;20056;-80
2022/07/28 02:32:36;;;;;;;2.97;2.00;;;;;;;11.93;77.99;102057.13;4769359;30;20506;-79
2022/07/28 02:35:21;;;;;;;3.13;2.10;;;;;;;11.93;77.62;102051.78;4768347;30;20067;-80
2022/07/28 02:37:54;;;;;;;4.35;1.95;;;;;;;11.93;77.96;102054.44;4769794;30;20123;-80
2022/07/28 02:40:22;;;;;;;2.15;1.90;;;;;;;11.90;78.20;102053.34;4768336;30;20060;-80
2022/07/28 02:42:51;;;;;;;2.03;1.75;;;;;;;11.90;78.11;102055.28;4769533;30;20498;-79
2022/07/28 02:45:21;;;;;;;4.60;2.08;;;;;;;11.88;77.96;102057.59;4753011;30;20056;-79
2022/07/28 02:47:52;;;;;;;1.73;1.63;;;;;;;11.86;78.77;102055.34;4767738;29;20083;-79
2022/07/28 02:50:22;;;;;;;4.97;1.80;;;;;;;11.85;78.45;102053.84;4753205;30;20559;-79
2022/07/28 02:52:50;;;;;;;2.67;1.95;;;;;;;11.83;78.63;102058.09;4769659;30;20598;-80
2022/07/28 02:55:17;;;;;;;1.95;1.80;;;;;;;11.81;78.63;102055.09;4769558;30;20059;-80
2022/07/28 02:57:45;;;;;;;2.15;1.95;;;;;;;11.79;78.90;102044.84;4768587;30;20044;-80
2022/07/28 03:00:12;;;;;;;4.05;1.90;;;;;;;11.78;78.94;102051.34;4769064;30;20064;-80
2022/07/28 03:02:40;;;;;;;5.63;1.67;;;;;;;11.78;79.15;102045.25;4769006;30;20044;-79
2022/07/28 03:05:07;;;;;;;4.82;2.08;;;;;;;11.73;79.03;102051.06;4769207;30;20056;-77
2022/07/28 03:07:37;;;;;;;4.15;1.80;;;;;;;11.68;79.05;102049.63;4769035;30;20052;-80
2022/07/28 03:10:24;;;;;;;1.80;1.70;;;;;;;11.66;78.73;102050.03;4769363;30;20052;-79
2022/07/28 03:13:00;;;;;;;3.53;2.03;;;;;;;11.64;79.34;102048.94;4767038;30;20536;-79
2022/07/28 03:15:27;;;;;;;3.58;2.15;;;;;;;11.62;79.61;102052.03;4767695;30;20052;-79
2022/07/28 03:17:54;;;;;;;2.78;2.03;;;;;;;11.61;79.29;102049.78;4768713;30;20493;-79
2022/07/28 03:20:20;;;;;;;5.05;2.00;;;;;;;11.59;78.75;102055.56;4768858;30;20060;-79
2022/07/28 03:22:47;;;;;;;3.72;1.98;;;;;;;11.54;79.93;102058.72;4768885;30;20052;-79
2022/07/28 03:25:33;;;;;;;3.85;2.20;;;;;;;11.56;79.30;102059.03;4768670;30;20063;-79
2022/07/28 03:28:01;;;;;;;2.25;2.03;;;;;;;11.54;79.72;102058.72;4767956;30;20052;-79
2022/07/28 03:30:33;;;;;;;2.22;2.03;;;;;;;11.52;79.98;102052.28;4768571;30;20525;-79
2022/07/28 03:33:01;;;;;;;3.85;2.30;;;;;;;11.49;79.71;102050.44;4768875;30;20052;-79
2022/07/28 03:35:30;;;;;;;3.70;1.92;;;;;;;11.46;80.17;102067.25;4768130;30;20048;-79
2022/07/28 03:38:01;;;;;;;2.50;2.30;;;;;;;11.46;80.21;102068.00;4768404;30;20122;-79
2022/07/28 03:40:30;;;;;;;2.70;2.17;;;;;;;11.47;80.45;102064.19;4768422;30;20055;-79
2022/07/28 03:43:02;;;;;;;8.23;2.38;;;;;;;11.48;79.99;102068.34;4765447;30;20548;-79
2022/07/28 03:45:31;;;;;;;3.30;2.28;;;;;;;11.48;80.61;102070.28;4768380;30;20569;-79
2022/07/28 03:47:58;;;;;;;4.20;2.10;;;;;;;11.46;80.61;102076.00;4767644;30;20067;-79
2022/07/28 03:50:28;;;;;;;8.27;2.45;;;;;;;11.47;79.96;102079.44;4768287;30;20513;-79
2022/07/28 03:52:56;;;;;;;5.15;2.05;;;;;;;11.49;80.58;102080.53;4768515;30;20048;-80
2022/07/28 03:55:24;;;;;;;4.60;2.35;;;;;;;11.51;79.63;102080.13;4768140;30;20533;-80
2022/07/28 03:57:51;;;;;;;5.18;2.30;;;;;;;11.51;79.63;102088.88;4767597;30;20049;-79
2022/07/28 04:00:19;;;;;;;4.47;2.35;;;;;;;11.51;79.48;102086.19;4768327;30;20090;-78
2022/07/28 04:02:46;;;;;;;2.40;1.80;;;;;;;11.52;80.15;102085.03;4768711;30;20056;-78
2022/07/28 04:05:14;;;;;;;5.70;2.10;;;;;;;11.55;79.43;102080.78;4768123;30;20387;-78
2022/07/28 04:07:41;;;;;;;3.78;2.00;;;;;;;11.56;79.38;102079.63;4768018;30;20565;-78
2022/07/28 04:10:10;;;;;;;2.55;2.30;;;;;;;11.59;79.55;102086.81;4751479;30;20572;-77
2022/07/28 04:12:46;;;;;;;2.50;2.15;;;;;;;11.59;79.99;102078.81;4767995;30;20052;-77
2022/07/28 04:15:14;;;;;;;4.57;2.05;;;;;;;11.58;79.84;102078.06;4768086;30;20055;-78
2022/07/28 04:17:41;;;;;;;5.32;2.30;;;;;;;11.61;79.55;102081.78;4767816;30;20056;-78
2022/07/28 04:20:08;;;;;;;6.05;2.40;;;;;;;11.62;79.33;102077.94;4767894;30;20052;-78
2022/07/28 04:22:35;;;;;;;3.75;2.47;;;;;;;11.63;79.45;102082.88;4767928;30;20056;-77
2022/07/28 04:25:05;;;;;;;2.10;2.00;;;;;;;11.66;79.43;102079.38;4767355;30;20536;-78
2022/07/28 04:27:35;;;;;;;3.50;2.30;;;;;;;11.67;79.14;102074.78;4767747;30;20524;-80
2022/07/28 04:30:07;;;;;;;6.28;2.45;;;;;;;11.69;79.30;102073.22;4767738;30;20059;-80
2022/07/28 04:32:33;;;;;;;8.40;2.50;;;;;;;11.73;79.69;102080.41;4768081;30;20484;-79
2022/07/28 04:35:00;;;;;;;3.90;2.33;;;;;;;11.76;79.04;102072.31;4767859;30;20048;-79
2022/07/28 04:37:26;;;;;;;6.57;2.13;;;;;;;11.80;78.87;102069.59;4767910;30;20121;-82
2022/07/28 04:39:58;;;;;;;4.15;2.60;;;;;;;11.83;78.65;102063.44;4766296;30;20059;-81
2022/07/28 04:42:25;;;;;;;3.35;2.55;;;;;;;11.86;78.47;102071.38;4767601;30;20052;-78
2022/07/28 04:44:51;;;;;;;3.72;2.42;;;;;;;11.91;78.45;102081.53;4767854;30;20052;-78
2022/07/28 04:47:18;;;;;;;2.83;2.55;;;;;;;11.96;78.48;102082.97;4767767;30;20052;-79
2022/07/28 04:49:44;;;;;;;3.95;2.67;;;;;;;12.01;78.03;102085.88;4767407;30;20114;-78
2022/07/28 04:52:11;;;;;;;2.33;2.10;;;;;;;12.07;77.47;102082.69;4767614;30;20052;-78
2022/07/28 04:54:37;;;;;;;6.18;2.63;;;;;;;12.11;77.09;102081.47;4768039;30;20052;-77
2022/07/28 04:57:04;;;;;;;3.80;2.60;;;;;;;12.16;77.00;102086.28;4770570;30;20512;-78
2022/07/28 04:59:35;;;;;;;4.30;2.38;;;;;;;12.24;76.85;102084.97;4770947;30;20094;-75
2022/07/28 05:02:02;;;;;;;7.82;2.72;;;;;;;12.31;76.43;102081.38;4770974;30;20118;-75
2022/07/28 05:04:28;;;;;;;4.57;2.40;;;;;;;12.35;76.28;102080.13;4770752;30;20064;-75
2022/07/28 05:06:55;;;;;;;3.72;2.30;;;;;;;12.41;75.97;102079.59;4770694;30;20048;-79
2022/07/28 05:09:22;;;;;;;5.18;2.47;;;;;;;12.55;75.80;102085.34;4770201;30;20060;-79
2022/07/28 05:11:48;;;;;;;4.97;2.60;;;;;;;12.85;74.76;102078.84;4770868;30;20053;-79
2022/07/28 05:14:16;;;;;;;2.30;2.10;;;;;;;13.10;73.83;102083.53;4769510;30;20588;-78
2022/07/28 05:16:43;;;;;;;2.58;1.90;;;;;;;13.47;72.33;102092.81;4770395;30;20056;-81
2022/07/28 05:19:11;;;;;;;2.70;2.25;;;;;;;13.64;71.59;102088.09;4770355;29;20124;-78
2022/07/28 05:21:37;;;;;;;6.13;2.30;;;;;;;14.30;69.29;102086.44;4770222;30;20056;-75
2022/07/28 05:24:04;;;;;;;3.10;2.13;;;;;;;14.97;66.74;102080.75;4770413;30;20052;-76
2022/07/28 05:26:31;;;;;;;3.45;2.17;;;;;;;15.86;63.56;102083.56;4769383;30;20505;-76
2022/07/28 05:28:57;;;;;;;3.88;2.15;;;;;;;16.14;62.23;102089.75;4770554;30;20063;-76
2022/07/28 05:31:24;;;;;;;5.63;2.30;;;;;;;16.27;60.88;102079.63;4770314;30;20047;-76
2022/07/28 05:33:51;;;;;;;5.43;2.53;;;;;;;16.18;61.12;102079.59;4770702;30;20466;-76
2022/07/28 05:36:17;;;;;;;3.28;2.13;;;;;;;16.21;61.06;102078.72;4770429;30;20056;-76
2022/07/28 05:38:44;;;;;;;2.30;2.10;;;;;;;16.68;59.87;102080.25;4769792;30;20531;-76
2022/07/28 05:41:10;;;;;;;4.60;2.45;;;;;;;16.70;59.39;102079.81;4770516;30;20052;-76
2022/07/28 05:43:37;;;;;;;7.03;2.05;;;;;;;16.69;59.63;102087.13;4769116;30;20059;-76
2022/07/28 05:46:04;;;;;;;3.28;2.00;;;;;;;17.26;58.72;102093.44;4768776;30;20497;-76
2022/07/28 05:48:31;;;;;;;5.25;2.00;;;;;;;17.61;56.79;102082.97;4769988;30;20163;-76
2022/07/28 05:50:57;;;;;;;4.05;2.13;;;;;;;18.72;53.22;102088.44;4770104;30;20063;-76
2022/07/28 05:53:24;;;;;;;4.00;2.13;;;;;;;19.64;51.19;102095.09;4769497;30;20052;-76
2022/07/28 05:55:50;;;;;;;6.10;2.28;;;;;;;20.01;50.40;102089.19;4770087;30;20055;-76
2022/07/28 05:58:26;;;;;;;5.00;2.30;;;;;;;20.05;49.77;102087.00;4770132;30;20139;-75
2022/07/28 06:00:57;;;;;;;4.45;2.10;;;;;;;20.27;49.41;102087.28;4768579;30;20823;-76
2022/07/28 06:03:23;;;;;;;3.30;1.90;;;;;;;20.93;47.46;102085.75;4769848;30;20499;-76
2022/07/28 06:05:53;;;;;;;4.72;2.00;;;;;;;21.19;47.13;102083.72;4769217;30;20465;-76
2022/07/28 06:08:39;;;;;;;3.97;1.83;;;;;;;21.08;46.78;102091.03;4769767;30;20088;-76
2022/07/28 06:11:10;;;;;;;10.80;2.30;;;;;;;20.51;47.96;102087.06;4770004;30;20056;-76
2022/07/28 06:13:38;;;;;;;5.00;2.10;;;;;;;20.31;48.42;102098.66;4769761;30;20063;-79
2022/07/28 06:16:06;;;;;;;6.10;1.75;;;;;;;20.43;48.21;102099.53;4769717;30;20052;-78
2022/07/28 06:18:38;;;;;;;6.00;2.00;;;;;;;20.39;48.76;102100.97;4769785;30;20537;-76
2022/07/28 06:21:05;;;;;;;6.55;1.88;;;;;;;20.57;47.70;102097.97;4769152;30;20048;-74
2022/07/28 06:23:31;;;;;;;4.13;1.70;;;;;;;20.27;48.91;102095.41;4769849;30;20478;-73
2022/07/28 06:25:58;;;;;;;2.58;1.48;;;;;;;19.96;49.23;102090.63;4769537;30;20058;-73
2022/07/28 06:28:24;;;;;;;5.40;1.88;;;;;;;19.80;49.88;102093.84;4769076;30;20056;-74
2022/07/28 06:30:51;;;;;;;4.82;2.00;;;;;;;19.63;50.16;102093.59;4769511;30;20056;-73
2022/07/28 06:33:17;;;;;;;2.80;1.30;;;;;;;19.11;50.47;102092.56;4769691;30;20052;-74
2022/07/28 06:35:44;;;;;;;3.38;1.38;;;;;;;18.80;51.52;102093.00;4768810;30;20101;-75
2022/07/28 06:38:19;;;;;;;5.28;1.65;;;;;;;18.70;52.24;102099.69;4769771;30;20087;-74
2022/07/28 06:40:46;;;;;;;6.57;1.70;;;;;;;18.71;52.10;102092.34;4769597;30;20053;-76
2022/07/28 06:43:13;;;;;;;3.90;1.50;;;;;;;18.78;52.67;102087.34;4769550;30;20040;-74
2022/07/28 06:45:40;;;;;;;4.43;1.92;;;;;;;18.67;51.98;102091.78;4769518;30;20556;-74
2022/07/28 06:48:09;;;;;;;3.45;1.60;;;;;;;18.69;52.74;102103.59;4769272;30;20474;-74
2022/07/28 06:50:38;;;;;;;3.55;1.50;;;;;;;18.60;52.61;102098.28;4769093;30;20052;-74
2022/07/28 06:53:04;;;;;;;3.30;1.70;;;;;;;18.50;52.64;102100.28;4769417;30;20080;-74
2022/07/28 06:55:31;;;;;;;1.70;1.60;;;;;;;18.48;52.56;102097.28;4767812;29;20118;-73
2022/07/28 06:58:04;;;;;;;1.80;1.60;;;;;;;18.43;53.34;102099.88;4769130;30;20052;-74
2022/07/28 07:00:31;;;;;;;5.72;1.60;;;;;;;18.37;53.03;102101.75;4769060;30;20114;-74
2022/07/28 07:02:58;;;;;;;1.30;1.20;;;;;;;18.29;53.21;102101.34;4769127;30;20052;-74
2022/07/28 07:05:30;;;;;;;4.70;1.25;;;;;;;18.26;53.01;102096.88;4768881;30;20512;-74
2022/07/28 07:07:57;;;;;;;2.75;1.40;;;;;;;18.32;53.69;102095.03;4769287;30;20120;-73
2022/07/28 07:10:24;;;;;;;2.95;1.80;;;;;;;18.35;53.29;102098.75;4767549;30;20106;-74
2022/07/28 07:12:50;;;;;;;2.20;1.30;;;;;;;18.32;53.67;102095.03;4769038;30;20056;-73
2022/07/28 07:15:19;;;;;;;2.30;1.50;;;;;;;18.25;53.29;102093.44;4768570;30;20048;-74
2022/07/28 07:17:45;;;;;;;5.72;1.30;;;;;;;18.25;52.89;102090.75;4769337;30;20155;-74
2022/07/28 07:20:13;;;;;;;3.58;1.45;;;;;;;18.35;52.37;102093.38;4768718;30;20140;-73
2022/07/28 07:22:45;;;;;;;1.98;1.42;;;;;;;18.48;53.45;102083.81;4768870;30;20056;-73
2022/07/28 07:25:15;;;;;;;4.88;1.35;;;;;;;18.74;51.04;102084.09;4767391;30;20135;-73
2022/07/28 07:27:42;;;;;;;3.15;1.38;;;;;;;18.72;51.59;102083.81;4767353;30;20127;-73
2022/07/28 07:30:10;;;;;;;8.02;1.52;;;;;;;18.83;51.63;102077.84;4768495;30;20996;-73
2022/07/28 07:32:37;;;;;;;3.10;1.40;;;;;;;18.82;51.11;102076.34;4769002;30;20495;-73
2022/07/28 07:35:05;;;;;;;9.82;1.60;;;;;;;18.93;51.52;102079.97;4768066;29;20056;-73
2022/07/28 07:37:32;;;;;;;6.93;1.83;;;;;;;18.97;50.24;102074.41;4768600;30;20507;-72
2022/07/28 07:39:59;;;;;;;2.20;1.52;;;;;;;19.06;50.86;102077.00;4768666;30;20094;-73
2022/07/28 07:42:26;;;;;;;4.38;1.30;;;;;;;19.18;50.25;102083.34;4768657;30;20060;-73
2022/07/28 07:44:53;;;;;;;3.63;1.20;;;;;;;19.31;49.86;102081.06;4768414;30;20056;-73
2022/07/28 07:47:20;;;;;;;1.20;1.10;;;;;;;19.60;48.88;102088.38;4768281;30;20110;-73
2022/07/28 07:49:46;;;;;;;3.38;1.30;;;;;;;19.91;48.84;102079.72;4768349;30;20056;-73
2022/07/28 07:52:13;;;;;;;2.65;1.10;;;;;;;20.17;47.53;102071.69;4768625;30;20102;-73
2022/07/28 07:54:41;;;;;;;3.13;1.30;;;;;;;20.49;46.00;102069.84;4768507;30;20308;-74
2022/07/28 07:57:08;;;;;;;1.80;1.20;;;;;;;20.67;45.39;102076.91;4767776;30;20189;-74
2022/07/28 07:59:34;;;;;;;1.92;1.52;;;;;;;20.33;45.76;102070.41;4768177;30;20056;-73
2022/07/28 08:02:01;;;;;;;2.97;1.38;;;;;;;20.25;46.58;102070.81;4768171;30;20052;-73
2022/07/28 08:04:28;;;;;;;1.48;1.00;;;;;;;20.39;46.02;102079.34;4767798;30;20052;-73
2022/07/28 08:06:54;;;;;;;1.42;1.23;;;;;;;20.39;45.70;102076.63;4768180;30;20049;-73
2022/07/28 08:09:22;;;;;;;6.10;0.90;;;;;;;20.61;43.98;102074.88;4766683;30;20066;-74
2022/07/28 08:11:48;;;;;;;1.95;1.10;;;;;;;20.61;43.10;102076.84;4767084;30;20078;-75
2022/07/28 08:14:15;;;;;;;2.15;1.10;;;;;;;20.69;43.80;102071.75;4768366;30;20055;-74
2022/07/28 08:16:43;;;;;;;1.25;0.95;;;;;;;20.92;42.81;102071.47;4767474;30;20052;-72
2022/07/28 08:19:10;;;;;;;6.07;1.00;;;;;;;21.11;42.71;102074.59;4767918;30;20060;-73
2022/07/28 08:21:37;;;;;;;1.95;1.10;;;;;;;21.10;41.66;102064.22;4767964;30;20053;-73
2022/07/28 08:24:04;;;;;;;3.08;1.00;;;;;;;21.16;42.62;102073.16;4768060;30;20056;-73
2022/07/28 08:26:31;;;;;;;2.70;1.17;;;;;;;21.27;41.96;102068.56;4768095;30;20052;-72
2022/07/28 08:28:57;;;;;;;2.55;1.08;;;;;;;21.45;41.53;102061.28;4767304;30;20056;-73
2022/07/28 08:31:24;;;;;;;6.00;1.17;;;;;;;21.50;41.34;102063.28;4767256;30;20118;-73
2022/07/28 08:33:51;;;;;;;2.83;0.88;;;;;;;21.64;42.99;102051.53;4768020;30;20052;-72
2022/07/28 08:36:20;;;;;;;0.90;0.90;;;;;;;21.71;41.30;102053.03;4768098;30;20052;-72
2022/07/28 08:38:46;;;;;;;1.10;0.73;;;;;;;22.03;40.31;102059.09;4768148;30;20526;-73
2022/07/28 08:41:21;;;;;;;1.33;0.98;;;;;;;22.01;39.33;102054.19;4767857;30;20085;-74
2022/07/28 08:43:51;;;;;;;3.03;1.00;;;;;;;21.97;39.55;102056.38;4768280;30;20110;-74
2022/07/28 08:46:19;;;;;;;1.00;0.90;;;;;;;21.99;39.24;102058.59;4767038;30;20227;-74
2022/07/28 08:48:46;;;;;;;1.60;1.00;;;;;;;21.83;38.56;102065.44;4768205;30;20614;-75
2022/07/28 08:51:14;;;;;;;3.45;1.10;;;;;;;21.76;38.83;102057.75;4767944;30;20131;-73
2022/07/28 08:53:42;;;;;;;0.98;0.90;;;;;;;22.01;38.94;102046.03;4766531;30;20052;-75
2022/07/28 08:56:12;;;;;;;1.45;1.00;;;;;;;22.05;38.54;102051.22;4767394;30;20064;-73
2022/07/28 08:58:39;;;;;;;1.30;1.20;;;;;;;21.90;38.27;102040.56;4767926;30;20056;-72
2022/07/28 09:01:07;;;;;;;1.30;0.95;;;;;;;21.74;38.60;102041.97;4767230;30;20098;-70
2022/07/28 09:03:34;;;;;;;2.33;1.80;;;;;;;21.86;39.20;102046.22;4767552;30;20059;-71
2022/07/28 09:06:01;;;;;;;2.58;1.00;;;;;;;21.96;38.42;102054.91;4767595;30;20052;-72
2022/07/28 09:08:28;;;;;;;2.65;0.90;;;;;;;22.03;37.48;102046.28;4767431;30;20059;-73
2022/07/28 09:10:54;;;;;;;1.58;1.00;;;;;;;21.98;38.12;102048.97;4767263;30;20048;-72
2022/07/28 09:13:21;;;;;;;1.13;0.75;;;;;;;21.92;37.07;102051.66;4767411;30;20525;-74
2022/07/28 09:15:48;;;;;;;1.70;0.90;;;;;;;21.91;37.83;102056.34;4766659;30;20060;-72
2022/07/28 09:18:16;;;;;;;1.90;1.00;;;;;;;21.98;39.42;102048.97;4767773;30;20051;-73
2022/07/28 09:20:44;;;;;;;0.90;0.90;;;;;;;21.97;38.54;102045.53;4767315;30;20052;-73
2022/07/28 09:23:12;;;;;;;1.70;0.95;;;;;;;21.68;38.90;102041.22;4766955;30;20552;-73
2022/07/28 09:26:08;;;;;;;1.48;1.00;;;;;;;21.64;38.91;102046.09;4767292;30;20056;-74
2022/07/28 09:28:56;;;;;;;2.17;0.90;;;;;;;21.83;38.00;102047.19;4767178;30;20486;-74
2022/07/28 09:31:24;;;;;;;2.50;0.90;;;;;;;22.07;37.49;102044.09;4766806;30;20063;-74
2022/07/28 09:33:59;;;;;;;2.80;0.98;;;;;;;22.40;36.80;102046.13;4767220;30;20064;-75
2022/07/28 09:36:27;;;;;;;1.00;0.82;;;;;;;22.49;36.63;102040.47;4767506;30;20080;-75
2022/07/28 09:38:55;;;;;;;1.08;1.08;;;;;;;22.50;37.21;102039.25;4767107;30;20052;-74
2022/07/28 09:41:23;;;;;;;5.72;1.20;;;;;;;22.56;37.42;102040.00;4767315;30;20083;-74
2022/07/28 09:43:51;;;;;;;1.45;1.00;;;;;;;22.47;36.39;102031.34;4769341;30;20095;-75
2022/07/28 09:46:23;;;;;;;1.58;0.77;;;;;;;22.55;37.25;102032.34;4769970;30;20056;-75
2022/07/28 09:48:56;;;;;;;1.38;0.90;;;;;;;22.69;36.88;102036.81;4770278;30;20521;-75
2022/07/28 09:51:32;;;;;;;3.75;1.25;;;;;;;22.88;36.23;102039.78;4769940;30;20072;-75
2022/07/28 09:54:13;;;;;;;1.50;1.00;;;;;;;22.85;35.96;102033.38;4769649;30;20056;-74
2022/07/28 09:56:43;;;;;;;1.55;1.10;;;;;;;22.72;36.89;102033.13;4770107;30;20062;-74
2022/07/28 09:59:11;;;;;;;2.15;1.00;;;;;;;22.75;36.58;102023.25;4769243;30;20056;-76
2022/07/28 10:01:51;;;;;;;2.40;1.17;;;;;;;22.81;37.57;102030.16;4770034;30;20180;-74
2022/07/28 10:04:35;;;;;;;2.55;1.10;;;;;;;22.86;37.24;102023.25;4770151;30;20081;-74
2022/07/28 10:07:04;;;;;;;1.20;0.90;;;;;;;22.78;35.98;102031.16;4769841;30;20102;-74
2022/07/28 10:09:32;;;;;;;2.80;0.90;;;;;;;22.85;36.07;102024.47;4768432;30;20553;-74
2022/07/28 10:12:18;;;;;;;1.30;1.05;;;;;;;23.12;37.01;102020.28;4769797;30;20088;-74
2022/07/28 10:14:46;;;;;;;1.73;1.40;;;;;;;23.20;36.55;102016.53;4769326;29;20052;-76
2022/07/28 10:17:24;;;;;;;3.28;1.00;;;;;;;23.35;36.38;102012.81;4769877;30;20422;-75
2022/07/28 10:19:53;;;;;;;2.65;0.95;;;;;;;23.32;35.75;102021.94;4770507;30;20599;-74
2022/07/28 10:22:22;;;;;;;1.80;1.05;;;;;;;23.35;37.00;102001.94;4769980;30;20056;-72
2022/07/28 10:24:51;;;;;;;0.90;0.88;;;;;;;23.65;37.71;102007.53;4769881;30;20059;-71
2022/07/28 10:27:21;;;;;;;1.90;1.00;;;;;;;23.89;35.17;102010.41;4769299;30;20044;-72
2022/07/28 10:29:55;;;;;;;1.33;1.10;;;;;;;23.80;35.19;102002.53;4769781;30;20052;-73
2022/07/28 10:32:22;;;;;;;1.08;0.98;;;;;;;23.69;36.02;102002.56;4754061;30;20048;-72
2022/07/28 10:35:10;;;;;;;1.75;1.10;;;;;;;23.90;35.48;101998.28;4770017;30;20060;-71
2022/07/28 10:37:43;;;;;;;2.35;1.13;;;;;;;24.11;35.64;101993.19;4769594;30;20559;-71
2022/07/28 10:40:11;;;;;;;2.40;1.00;;;;;;;24.27;34.54;101995.84;4769558;30;20556;-71
2022/07/28 10:42:39;;;;;;;4.00;0.95;;;;;;;24.29;34.16;101998.06;4768878;30;20044;-71
2022/07/28 10:45:08;;;;;;;1.25;1.00;;;;;;;24.38;33.17;101995.03;4769144;30;20060;-72
2022/07/28 10:47:34;;;;;;;0.90;0.77;;;;;;;24.38;33.58;101991.56;4769214;30;20067;-71
2022/07/28 10:50:03;;;;;;;1.15;0.88;;;;;;;24.24;33.50;101983.22;4769361;29;20052;-72
2022/07/28 10:52:32;;;;;;;1.95;0.70;;;;;;;24.17;35.16;101985.75;4768806;30;20052;-71
2022/07/28 10:55:35;;;;;;;2.53;1.10;;;;;;;24.59;34.88;101979.75;4769634;30;20056;-70
2022/07/28 10:58:31;;;;;;;3.17;0.98;;;;;;;24.56;34.60;101980.03;4769345;30;20052;-71
2022/07/28 11:00:58;;;;;;;7.40;1.40;;;;;;;24.27;33.48;101974.09;4769469;30;20063;-70
2022/07/28 11:03:34;;;;;;;8.20;1.80;;;;;;;24.59;33.67;101977.03;4769491;30;20485;-70
2022/07/28 11:06:28;;;;;;;1.25;1.00;;;;;;;24.77;34.47;101970.19;4769312;30;20056;-71
2022/07/28 11:09:14;;;;;;;2.42;1.30;;;;;;;24.89;33.46;101976.25;4769274;29;20052;-71
2022/07/28 11:11:42;;;;;;;2.30;1.20;;;;;;;24.94;33.30;101968.03;4768333;30;20087;-70
2022/07/28 11:14:24;;;;;;;5.57;1.33;;;;;;;24.86;33.58;101963.66;4769091;30;20060;-71
2022/07/28 11:16:59;;;;;;;46.03;31.65;;;;;;;24.90;33.64;101970.31;4769225;30;20056;-71
2022/07/28 11:19:44;;;;;;;35.67;26.48;;;;;;;24.97;33.63;101965.56;4768945;30;20114;-72
2022/07/28 11:22:31;;;;;;;1.15;1.15;;;;;;;24.75;34.35;101966.50;4768608;30;20083;-71
2022/07/28 11:25:01;;;;;;;2.03;1.10;;;;;;;24.84;33.59;101963.44;4768687;30;20131;-72
2022/07/28 11:27:50;;;;;;;1.15;1.00;;;;;;;24.84;32.91;101964.16;4751470;30;20056;-72
2022/07/28 11:30:17;;;;;;;1.10;1.00;;;;;;;24.67;33.06;101963.59;4751192;30;20061;-72
2022/07/28 11:32:52;;;;;;;2.05;1.20;;;;;;;24.59;33.69;101963.41;4757474;29;20048;-72
2022/07/28 11:35:23;;;;;;;1.30;0.90;;;;;;;24.69;33.54;101961.13;4768451;30;20059;-72
2022/07/28 11:38:01;;;;;;;2.03;1.13;;;;;;;24.73;33.31;101955.38;4775441;29;20051;-72